createdAt,value
2017-02-13T00:00:26.142Z,21.86
2017-02-13T00:00:54.267Z,21.9
2017-02-13T00:01:22.382Z,21.89
2017-02-13T00:01:50.475Z,21.9
2017-02-13T00:02:18.675Z,21.92
2017-02-13T00:02:46.717Z,21.85
2017-02-13T00:03:14.769Z,21.9
2017-02-13T00:03:42.848Z,21.89
2017-02-13T00:04:10.905Z,21.86
2017-02-13T00:04:39.020Z,21.85
2017-02-13T00:05:07.186Z,21.93
2017-02-13T00:05:35.388Z,21.85
2017-02-13T00:06:03.500Z,21.85
2017-02-13T00:06:31.642Z,21.82
2017-02-13T00:06:59.799Z,21.92
2017-02-13T00:07:28.147Z,21.92
2017-02-13T00:07:56.373Z,21.92
2017-02-13T00:08:24.493Z,21.92
2017-02-13T00:08:52.576Z,21.86
2017-02-13T00:09:20.764Z,21.85
2017-02-13T00:09:48.798Z,21.82
2017-02-13T00:10:16.926Z,21.86
2017-02-13T00:10:45.060Z,21.85
2017-02-13T00:11:13.094Z,21.85
2017-02-13T00:11:41.185Z,21.83
2017-02-13T00:12:09.382Z,21.86
2017-02-13T00:12:37.484Z,21.86
2017-02-13T00:13:05.547Z,21.94
2017-02-13T00:13:33.634Z,21.83
2017-02-13T00:14:01.792Z,21.89
2017-02-13T00:14:29.959Z,21.83
2017-02-13T00:14:58.132Z,21.86
2017-02-13T00:15:26.260Z,21.85
2017-02-13T00:15:54.304Z,21.92
2017-02-13T00:16:22.221Z,21.92
2017-02-13T00:16:50.233Z,21.89
2017-02-13T00:17:18.664Z,21.8
2017-02-13T00:17:46.793Z,21.85
2017-02-13T00:18:14.796Z,21.83
2017-02-13T00:18:42.798Z,21.92
2017-02-13T00:19:10.952Z,21.85
2017-02-13T00:19:39.031Z,21.89
2017-02-13T00:20:07.146Z,21.86
2017-02-13T00:20:35.267Z,21.89
2017-02-13T00:21:03.501Z,21.85
2017-02-13T00:21:31.598Z,21.86
2017-02-13T00:21:59.592Z,21.93
2017-02-13T00:22:27.752Z,21.89
2017-02-13T00:22:55.990Z,21.85
2017-02-13T00:23:24.189Z,21.85
2017-02-13T00:23:52.322Z,21.93
2017-02-13T00:24:20.449Z,21.89
2017-02-13T00:24:48.368Z,21.93
2017-02-13T00:25:16.522Z,21.85
2017-02-13T00:25:44.616Z,21.9
2017-02-13T00:26:12.752Z,21.85
2017-02-13T00:26:40.671Z,21.92
2017-02-13T00:27:08.850Z,21.92
2017-02-13T00:27:37.028Z,21.94
2017-02-13T00:28:05.058Z,21.9
2017-02-13T00:28:33.190Z,21.86
2017-02-13T00:29:01.343Z,21.86
2017-02-13T00:29:29.463Z,21.9
2017-02-13T00:29:57.467Z,21.85
2017-02-13T00:30:25.615Z,21.83
2017-02-13T00:30:53.732Z,21.89
2017-02-13T00:31:21.847Z,21.92
2017-02-13T00:31:50.067Z,21.89
2017-02-13T00:32:18.287Z,21.9
2017-02-13T00:32:46.414Z,21.92
2017-02-13T00:33:14.616Z,21.94
2017-02-13T00:33:42.844Z,21.92
2017-02-13T00:34:10.892Z,21.94
2017-02-13T00:34:39.006Z,21.9
2017-02-13T00:35:07.191Z,21.89
2017-02-13T00:35:35.346Z,21.86
2017-02-13T00:36:03.596Z,21.89
2017-02-13T00:36:31.735Z,21.86
2017-02-13T00:36:59.932Z,21.92
2017-02-13T00:37:27.988Z,21.93
2017-02-13T00:37:56.496Z,21.82
2017-02-13T00:38:24.481Z,21.82
2017-02-13T00:38:52.537Z,21.76
2017-02-13T00:39:20.505Z,21.74
2017-02-13T00:39:48.684Z,21.8
2017-02-13T00:40:17.011Z,21.86
2017-02-13T00:40:45.126Z,21.86
2017-02-13T00:41:13.325Z,21.8
2017-02-13T00:41:41.457Z,21.77
2017-02-13T00:42:09.658Z,21.76
2017-02-13T00:42:37.970Z,21.71
2017-02-13T00:43:06.099Z,21.82
2017-02-13T00:43:34.171Z,21.78
2017-02-13T00:44:02.003Z,21.82
2017-02-13T00:44:30.000Z,21.77
2017-02-13T00:44:58.030Z,21.85
2017-02-13T00:45:26.054Z,21.77
2017-02-13T00:45:53.996Z,21.85
2017-02-13T00:46:22.060Z,21.78
2017-02-13T00:46:50.210Z,21.78
2017-02-13T00:47:18.263Z,21.8
2017-02-13T00:47:46.584Z,21.8
2017-02-13T00:48:14.768Z,21.85
2017-02-13T00:48:42.717Z,21.82
2017-02-13T00:49:10.719Z,21.74
2017-02-13T00:49:38.825Z,21.77
2017-02-13T00:50:07.071Z,21.86
2017-02-13T00:50:35.275Z,21.86
2017-02-13T00:51:03.438Z,21.78
2017-02-13T00:51:31.550Z,21.76
2017-02-13T00:51:59.611Z,21.77
2017-02-13T00:52:27.859Z,21.82
2017-02-13T00:52:56.371Z,21.71
2017-02-13T00:53:24.591Z,21.7
2017-02-13T00:53:52.795Z,21.74
2017-02-13T00:54:20.840Z,21.74
2017-02-13T00:54:48.871Z,21.73
2017-02-13T00:55:16.844Z,21.83
2017-02-13T00:55:45.026Z,21.71
2017-02-13T00:56:13.092Z,21.77
2017-02-13T00:56:41.192Z,21.74
2017-02-13T00:57:09.343Z,21.76
2017-02-13T00:57:37.411Z,21.73
2017-02-13T00:58:05.731Z,21.8
2017-02-13T00:58:33.834Z,21.8
2017-02-13T00:59:02.012Z,21.82
2017-02-13T00:59:30.196Z,21.78
2017-02-13T00:59:58.327Z,21.9
2017-02-13T01:00:26.434Z,21.89
2017-02-13T01:00:54.556Z,21.78
2017-02-13T01:01:22.700Z,21.86
2017-02-13T01:01:50.816Z,21.89
2017-02-13T01:02:18.913Z,22.02
2017-02-13T01:02:47.105Z,21.94
2017-02-13T01:03:15.476Z,21.86
2017-02-13T01:03:43.678Z,21.96
2017-02-13T01:04:11.951Z,21.92
2017-02-13T01:04:40.001Z,21.96
2017-02-13T01:05:08.172Z,21.92
2017-02-13T01:05:36.228Z,21.97
2017-02-13T01:06:04.397Z,21.92
2017-02-13T01:06:32.626Z,22
2017-02-13T01:07:00.721Z,22.04
2017-02-13T01:07:28.839Z,21.96
2017-02-13T01:07:57.089Z,22.02
2017-02-13T01:08:25.331Z,21.96
2017-02-13T01:08:53.447Z,21.99
2017-02-13T01:09:21.521Z,21.97
2017-02-13T01:09:49.545Z,22
2017-02-13T01:10:17.729Z,22.04
2017-02-13T01:10:45.890Z,22.04
2017-02-13T01:11:14.082Z,22.05
2017-02-13T01:11:42.121Z,22
2017-02-13T01:12:10.120Z,21.99
2017-02-13T01:12:38.300Z,21.96
2017-02-13T01:13:06.421Z,21.97
2017-02-13T01:13:34.593Z,21.97
2017-02-13T01:14:02.767Z,21.94
2017-02-13T01:14:31.004Z,21.99
2017-02-13T01:14:59.198Z,21.99
2017-02-13T01:15:27.398Z,21.99
2017-02-13T01:15:55.566Z,22.02
2017-02-13T01:16:23.679Z,22.04
2017-02-13T01:16:51.689Z,21.99
2017-02-13T01:17:19.801Z,22
2017-02-13T01:17:47.993Z,22.04
2017-02-13T01:18:16.570Z,22.05
2017-02-13T01:18:44.730Z,21.99
2017-02-13T01:19:12.686Z,22
2017-02-13T01:19:40.712Z,22.02
2017-02-13T01:20:08.813Z,22.04
2017-02-13T01:20:36.764Z,22.02
2017-02-13T01:21:04.855Z,22.04
2017-02-13T01:21:33.163Z,21.99
2017-02-13T01:22:01.318Z,22.05
2017-02-13T01:22:29.376Z,22.04
2017-02-13T01:22:57.512Z,21.99
2017-02-13T01:23:25.756Z,22.02
2017-02-13T01:23:53.855Z,21.99
2017-02-13T01:24:21.889Z,22.05
2017-02-13T01:24:50.100Z,22
2017-02-13T01:25:18.283Z,22.07
2017-02-13T01:25:46.372Z,22.04
2017-02-13T01:26:14.518Z,22.07
2017-02-13T01:26:42.695Z,22.05
2017-02-13T01:27:10.617Z,22.14
2017-02-13T01:27:38.723Z,22.15
2017-02-13T01:28:06.714Z,22.08
2017-02-13T01:28:34.991Z,22.02
2017-02-13T01:29:03.104Z,22.02
2017-02-13T01:29:31.113Z,22.05
2017-02-13T01:29:59.129Z,22.05
2017-02-13T01:30:27.135Z,22.05
2017-02-13T01:30:55.173Z,22.07
2017-02-13T01:31:23.109Z,22
2017-02-13T01:31:51.252Z,22
2017-02-13T01:32:19.283Z,22.12
2017-02-13T01:32:47.303Z,22.09
2017-02-13T01:33:15.454Z,22.14
2017-02-13T01:33:43.652Z,22.11
2017-02-13T01:34:11.771Z,22.16
2017-02-13T01:34:39.969Z,22.2
2017-02-13T01:35:07.937Z,22.08
2017-02-13T01:35:36.160Z,22.14
2017-02-13T01:36:04.405Z,22.18
2017-02-13T01:36:32.574Z,22.16
2017-02-13T01:37:00.778Z,22.14
2017-02-13T01:37:28.892Z,22.14
2017-02-13T01:37:56.989Z,22.14
2017-02-13T01:38:25.227Z,22.15
2017-02-13T01:38:53.246Z,22.15
2017-02-13T01:39:21.457Z,22.12
2017-02-13T01:39:49.669Z,22.16
2017-02-13T01:40:17.839Z,22.12
2017-02-13T01:40:45.848Z,22.2
2017-02-13T01:41:13.693Z,22.23
2017-02-13T01:41:41.833Z,22.14
2017-02-13T01:42:09.898Z,22.2
2017-02-13T01:42:38.013Z,22.2
2017-02-13T01:43:06.149Z,22.16
2017-02-13T01:43:34.347Z,22.14
2017-02-13T01:44:02.521Z,22.16
2017-02-13T01:44:30.702Z,22.12
2017-02-13T01:44:58.852Z,22.2
2017-02-13T01:45:27.082Z,22.12
2017-02-13T01:45:55.178Z,22.16
2017-02-13T01:46:23.345Z,22.3
2017-02-13T01:46:51.455Z,22.16
2017-02-13T01:47:19.532Z,22.18
2017-02-13T01:47:47.710Z,22.23
2017-02-13T01:48:15.805Z,22.23
2017-02-13T01:48:44.132Z,22.2
2017-02-13T01:49:12.129Z,22.22
2017-02-13T01:49:40.251Z,22.23
2017-02-13T01:50:08.391Z,22.22
2017-02-13T01:50:36.386Z,22.15
2017-02-13T01:51:04.554Z,22.26
2017-02-13T01:51:32.641Z,22.11
2017-02-13T01:52:00.458Z,22.2
2017-02-13T01:52:28.600Z,22.18
2017-02-13T01:52:56.712Z,22.24
2017-02-13T01:53:24.887Z,22.16
2017-02-13T01:53:53.117Z,22.29
2017-02-13T01:54:21.217Z,22.23
2017-02-13T01:54:49.222Z,22.26
2017-02-13T01:55:17.328Z,22.22
2017-02-13T01:55:45.500Z,22.23
2017-02-13T01:56:13.617Z,22.27
2017-02-13T01:56:41.719Z,22.27
2017-02-13T01:57:09.768Z,22.27
2017-02-13T01:57:37.895Z,22.23
2017-02-13T01:58:06.175Z,22.26
2017-02-13T01:58:34.525Z,22.41
2017-02-13T01:59:02.541Z,22.34
2017-02-13T01:59:30.758Z,22.42
2017-02-13T01:59:58.759Z,22.51
2017-02-13T02:00:26.942Z,22.45
2017-02-13T02:00:55.072Z,22.54
2017-02-13T02:01:23.128Z,22.49
2017-02-13T02:01:51.058Z,22.55
2017-02-13T02:02:19.062Z,22.48
2017-02-13T02:02:47.146Z,22.51
2017-02-13T02:03:15.187Z,22.46
2017-02-13T02:03:43.399Z,22.51
2017-02-13T02:04:11.514Z,22.55
2017-02-13T02:04:39.624Z,22.63
2017-02-13T02:05:07.875Z,22.6
2017-02-13T02:05:35.976Z,22.6
2017-02-13T02:06:04.213Z,22.6
2017-02-13T02:06:32.241Z,22.6
2017-02-13T02:07:00.421Z,22.6
2017-02-13T02:07:28.438Z,22.66
2017-02-13T02:07:56.528Z,22.61
2017-02-13T02:08:24.565Z,22.69
2017-02-13T02:08:52.823Z,22.63
2017-02-13T02:09:20.942Z,22.69
2017-02-13T02:09:48.880Z,22.59
2017-02-13T02:10:17.019Z,22.63
2017-02-13T02:10:45.067Z,22.64
2017-02-13T02:11:12.961Z,22.67
2017-02-13T02:11:41.138Z,22.7
2017-02-13T02:12:09.265Z,22.71
2017-02-13T02:12:37.402Z,22.67
2017-02-13T02:13:05.397Z,22.7
2017-02-13T02:13:33.436Z,22.67
2017-02-13T02:14:01.890Z,22.79
2017-02-13T02:14:29.936Z,22.81
2017-02-13T02:14:58.016Z,22.81
2017-02-13T02:15:26.066Z,22.81
2017-02-13T02:15:54.134Z,22.85
2017-02-13T02:16:22.295Z,22.86
2017-02-13T02:16:50.450Z,22.85
2017-02-13T02:17:18.601Z,22.82
2017-02-13T02:17:46.741Z,22.91
2017-02-13T02:18:14.764Z,22.81
2017-02-13T02:18:42.752Z,22.79
2017-02-13T02:19:10.949Z,22.75
2017-02-13T02:19:39.111Z,22.82
2017-02-13T02:20:07.043Z,22.92
2017-02-13T02:20:35.120Z,22.97
2017-02-13T02:21:03.336Z,22.96
2017-02-13T02:21:31.315Z,23.01
2017-02-13T02:21:59.499Z,23.06
2017-02-13T02:22:27.713Z,23.16
2017-02-13T02:22:55.917Z,23.1
2017-02-13T02:23:23.972Z,23.14
2017-02-13T02:23:52.254Z,23.14
2017-02-13T02:24:20.456Z,23.22
2017-02-13T02:24:48.526Z,23.19
2017-02-13T02:25:16.624Z,23.21
2017-02-13T02:25:44.752Z,23.24
2017-02-13T02:26:12.919Z,23.28
2017-02-13T02:26:40.914Z,23.34
2017-02-13T02:27:09.077Z,23.34
2017-02-13T02:27:37.183Z,23.45
2017-02-13T02:28:05.135Z,23.38
2017-02-13T02:28:33.685Z,23.45
2017-02-13T02:29:01.776Z,23.5
2017-02-13T02:29:29.784Z,23.5
2017-02-13T02:29:58.006Z,23.53
2017-02-13T02:30:26.144Z,23.64
2017-02-13T02:30:54.203Z,23.62
2017-02-13T02:31:22.303Z,23.6
2017-02-13T02:31:50.379Z,23.6
2017-02-13T02:32:18.518Z,23.7
2017-02-13T02:32:46.476Z,23.67
2017-02-13T02:33:14.511Z,23.78
2017-02-13T02:33:42.519Z,23.71
2017-02-13T02:34:10.790Z,23.82
2017-02-13T02:34:38.852Z,23.85
2017-02-13T02:35:06.829Z,23.9
2017-02-13T02:35:34.979Z,23.92
2017-02-13T02:36:03.086Z,23.94
2017-02-13T02:36:31.092Z,24.03
2017-02-13T02:36:59.125Z,23.92
2017-02-13T02:37:27.222Z,24
2017-02-13T02:37:55.390Z,24.07
2017-02-13T02:38:23.488Z,24.08
2017-02-13T02:38:51.714Z,24.17
2017-02-13T02:39:19.986Z,24.12
2017-02-13T02:39:48.009Z,24.17
2017-02-13T02:40:16.054Z,24.17
2017-02-13T02:40:44.062Z,24.12
2017-02-13T02:41:12.262Z,24.14
2017-02-13T02:41:40.407Z,24.19
2017-02-13T02:42:08.455Z,24.27
2017-02-13T02:42:36.620Z,24.26
2017-02-13T02:43:04.620Z,24.42
2017-02-13T02:43:32.736Z,24.37
2017-02-13T02:44:01.143Z,24.33
2017-02-13T02:44:29.292Z,24.42
2017-02-13T02:44:57.481Z,24.39
2017-02-13T02:45:25.700Z,24.45
2017-02-13T02:45:53.807Z,24.36
2017-02-13T02:46:21.850Z,24.4
2017-02-13T02:46:49.937Z,24.4
2017-02-13T02:47:18.038Z,24.4
2017-02-13T02:47:46.075Z,24.46
2017-02-13T02:48:14.063Z,24.49
2017-02-13T02:48:42.281Z,24.42
2017-02-13T02:49:10.560Z,24.49
2017-02-13T02:49:38.592Z,24.45
2017-02-13T02:50:06.693Z,24.51
2017-02-13T02:50:34.814Z,24.46
2017-02-13T02:51:02.985Z,24.45
2017-02-13T02:51:30.996Z,24.44
2017-02-13T02:51:59.121Z,24.49
2017-02-13T02:52:27.091Z,24.48
2017-02-13T02:52:55.171Z,24.49
2017-02-13T02:53:23.303Z,24.39
2017-02-13T02:53:51.486Z,24.46
2017-02-13T02:54:19.722Z,24.49
2017-02-13T02:54:47.933Z,24.42
2017-02-13T02:55:16.143Z,24.45
2017-02-13T02:55:44.274Z,24.46
2017-02-13T02:56:12.379Z,24.46
2017-02-13T02:56:40.367Z,24.42
2017-02-13T02:57:08.421Z,24.46
2017-02-13T02:57:36.634Z,24.4
2017-02-13T02:58:04.863Z,24.4
2017-02-13T02:58:33.078Z,24.37
2017-02-13T02:59:01.315Z,24.36
2017-02-13T02:59:29.593Z,24.37
2017-02-13T02:59:57.715Z,24.42
2017-02-13T03:00:25.677Z,24.33
2017-02-13T03:00:53.668Z,24.4
2017-02-13T03:01:21.779Z,24.33
2017-02-13T03:01:49.803Z,24.29
2017-02-13T03:02:17.666Z,24.32
2017-02-13T03:02:45.889Z,24.29
2017-02-13T03:03:14.108Z,24.33
2017-02-13T03:03:42.214Z,24.24
2017-02-13T03:04:10.326Z,24.33
2017-02-13T03:04:38.633Z,24.18
2017-02-13T03:05:06.784Z,24.17
2017-02-13T03:05:34.926Z,24.19
2017-02-13T03:06:03.018Z,24.14
2017-02-13T03:06:31.136Z,24.27
2017-02-13T03:06:59.235Z,24.27
2017-02-13T03:07:27.442Z,24.33
2017-02-13T03:07:55.601Z,24.33
2017-02-13T03:08:23.841Z,24.3
2017-02-13T03:08:51.914Z,24.33
2017-02-13T03:09:19.999Z,24.33
2017-02-13T03:09:48.233Z,24.33
2017-02-13T03:10:16.300Z,24.3
2017-02-13T03:10:44.286Z,24.19
2017-02-13T03:11:12.461Z,24.22
2017-02-13T03:11:40.633Z,24.17
2017-02-13T03:12:08.690Z,24.17
2017-02-13T03:12:36.832Z,24.14
2017-02-13T03:13:05.023Z,24.12
2017-02-13T03:13:33.142Z,24.17
2017-02-13T03:14:01.159Z,24.15
2017-02-13T03:14:29.385Z,24.17
2017-02-13T03:14:57.392Z,24.18
2017-02-13T03:15:25.424Z,24.11
2017-02-13T03:15:53.420Z,24.11
2017-02-13T03:16:21.626Z,24.04
2017-02-13T03:16:49.791Z,24.02
2017-02-13T03:17:17.709Z,24.04
2017-02-13T03:17:45.881Z,23.99
2017-02-13T03:18:14.114Z,23.97
2017-02-13T03:18:42.146Z,23.96
2017-02-13T03:19:10.237Z,23.92
2017-02-13T03:19:38.440Z,23.94
2017-02-13T03:20:06.529Z,23.89
2017-02-13T03:20:34.630Z,23.93
2017-02-13T03:21:02.726Z,23.89
2017-02-13T03:21:30.849Z,23.93
2017-02-13T03:21:58.882Z,23.92
2017-02-13T03:22:26.913Z,23.93
2017-02-13T03:22:55.169Z,23.85
2017-02-13T03:23:23.404Z,23.85
2017-02-13T03:23:51.610Z,23.84
2017-02-13T03:24:19.758Z,23.79
2017-02-13T03:24:48.082Z,23.85
2017-02-13T03:25:16.209Z,23.85
2017-02-13T03:25:44.222Z,23.82
2017-02-13T03:26:12.292Z,23.85
2017-02-13T03:26:40.523Z,23.85
2017-02-13T03:27:08.659Z,23.82
2017-02-13T03:27:36.686Z,23.85
2017-02-13T03:28:04.833Z,23.79
2017-02-13T03:28:32.959Z,23.82
2017-02-13T03:29:01.162Z,23.81
2017-02-13T03:29:29.174Z,23.81
2017-02-13T03:29:57.439Z,23.84
2017-02-13T03:30:25.477Z,23.79
2017-02-13T03:30:53.595Z,23.81
2017-02-13T03:31:21.710Z,23.77
2017-02-13T03:31:49.760Z,23.77
2017-02-13T03:32:17.711Z,23.79
2017-02-13T03:32:45.967Z,23.78
2017-02-13T03:33:14.137Z,23.75
2017-02-13T03:33:42.064Z,23.78
2017-02-13T03:34:10.207Z,23.85
2017-02-13T03:34:38.544Z,23.74
2017-02-13T03:35:06.754Z,23.7
2017-02-13T03:35:34.947Z,23.75
2017-02-13T03:36:03.056Z,23.66
2017-02-13T03:36:31.163Z,23.7
2017-02-13T03:36:59.235Z,23.74
2017-02-13T03:37:27.266Z,23.67
2017-02-13T03:37:55.360Z,23.7
2017-02-13T03:38:23.462Z,23.62
2017-02-13T03:38:51.651Z,23.53
2017-02-13T03:39:19.700Z,23.6
2017-02-13T03:39:48.024Z,23.63
2017-02-13T03:40:16.058Z,23.6
2017-02-13T03:40:44.176Z,23.56
2017-02-13T03:41:12.395Z,23.55
2017-02-13T03:41:40.401Z,23.53
2017-02-13T03:42:08.562Z,23.57
2017-02-13T03:42:36.563Z,23.63
2017-02-13T03:43:04.535Z,23.7
2017-02-13T03:43:32.553Z,23.71
2017-02-13T03:44:00.660Z,23.71
2017-02-13T03:44:28.739Z,23.75
2017-02-13T03:44:56.823Z,23.62
2017-02-13T03:45:24.907Z,23.64
2017-02-13T03:45:53.016Z,23.67
2017-02-13T03:46:21.102Z,23.72
2017-02-13T03:46:49.210Z,23.62
2017-02-13T03:47:17.400Z,23.62
2017-02-13T03:47:45.517Z,23.55
2017-02-13T03:48:13.635Z,23.56
2017-02-13T03:48:41.848Z,23.62
2017-02-13T03:49:09.959Z,23.57
2017-02-13T03:49:38.158Z,23.57
2017-02-13T03:50:06.471Z,23.66
2017-02-13T03:50:34.588Z,23.56
2017-02-13T03:51:02.694Z,23.53
2017-02-13T03:51:30.923Z,23.57
2017-02-13T03:51:59.063Z,23.6
2017-02-13T03:52:27.290Z,23.57
2017-02-13T03:52:55.328Z,23.57
2017-02-13T03:53:23.446Z,23.6
2017-02-13T03:53:51.536Z,23.59
2017-02-13T03:54:19.557Z,23.45
2017-02-13T03:54:47.655Z,23.37
2017-02-13T03:55:15.775Z,23.38
2017-02-13T03:55:43.802Z,23.4
2017-02-13T03:56:11.757Z,23.42
2017-02-13T03:56:39.928Z,23.42
2017-02-13T03:57:08.085Z,23.44
2017-02-13T03:57:36.146Z,23.38
2017-02-13T03:58:04.165Z,23.32
2017-02-13T03:58:32.278Z,23.37
2017-02-13T03:59:00.313Z,23.38
2017-02-13T03:59:28.209Z,23.38
2017-02-13T03:59:56.323Z,23.29
2017-02-13T04:00:24.443Z,23.32
2017-02-13T04:00:52.399Z,23.25
2017-02-13T04:01:20.502Z,23.34
2017-02-13T04:01:48.538Z,23.37
2017-02-13T04:02:16.743Z,23.29
2017-02-13T04:02:44.910Z,23.29
2017-02-13T04:03:13.061Z,23.22
2017-02-13T04:03:41.213Z,23.25
2017-02-13T04:04:09.190Z,23.28
2017-02-13T04:04:37.319Z,23.28
2017-02-13T04:05:05.447Z,23.29
2017-02-13T04:05:33.473Z,23.19
2017-02-13T04:06:01.509Z,23.25
2017-02-13T04:06:29.623Z,23.28
2017-02-13T04:06:57.814Z,23.28
2017-02-13T04:07:25.923Z,23.22
2017-02-13T04:07:54.015Z,23.29
2017-02-13T04:08:22.172Z,23.26
2017-02-13T04:08:50.197Z,23.22
2017-02-13T04:09:18.254Z,23.24
2017-02-13T04:09:46.203Z,23.35
2017-02-13T04:10:14.406Z,23.28
2017-02-13T04:10:42.388Z,23.28
2017-02-13T04:11:10.335Z,23.25
2017-02-13T04:11:38.361Z,23.24
2017-02-13T04:12:06.555Z,23.21
2017-02-13T04:12:34.696Z,23.19
2017-02-13T04:13:02.855Z,23.28
2017-02-13T04:13:30.914Z,23.21
2017-02-13T04:13:58.933Z,23.22
2017-02-13T04:14:27.053Z,23.19
2017-02-13T04:14:55.234Z,23.22
2017-02-13T04:15:23.593Z,23.19
2017-02-13T04:15:51.632Z,23.19
2017-02-13T04:16:19.722Z,23.15
2017-02-13T04:16:47.930Z,23.18
2017-02-13T04:17:15.913Z,23.15
2017-02-13T04:17:44.027Z,23.12
2017-02-13T04:18:12.223Z,23.15
2017-02-13T04:18:40.395Z,23.16
2017-02-13T04:19:08.574Z,23.14
2017-02-13T04:19:36.607Z,23.07
2017-02-13T04:20:04.663Z,23.16
2017-02-13T04:20:32.948Z,23.06
2017-02-13T04:21:01.057Z,23.12
2017-02-13T04:21:29.065Z,23.12
2017-02-13T04:21:57.121Z,23.1
2017-02-13T04:22:25.152Z,23.1
2017-02-13T04:22:53.333Z,23.1
2017-02-13T04:23:21.260Z,23.16
2017-02-13T04:23:49.444Z,23.14
2017-02-13T04:24:17.342Z,23.07
2017-02-13T04:24:45.485Z,23.09
2017-02-13T04:25:13.891Z,23.1
2017-02-13T04:25:41.849Z,23.12
2017-02-13T04:26:09.988Z,23.1
2017-02-13T04:26:38.177Z,23.14
2017-02-13T04:27:06.359Z,23.15
2017-02-13T04:27:34.578Z,23.14
2017-02-13T04:28:02.675Z,23.14
2017-02-13T04:28:30.721Z,23.09
2017-02-13T04:28:58.803Z,23.1
2017-02-13T04:29:26.904Z,23.1
2017-02-13T04:29:55.030Z,23.09
2017-02-13T04:30:23.154Z,23.09
2017-02-13T04:30:51.227Z,23.03
2017-02-13T04:31:19.274Z,23.04
2017-02-13T04:31:47.514Z,23.04
2017-02-13T04:32:15.690Z,23.03
2017-02-13T04:32:43.781Z,22.97
2017-02-13T04:33:11.825Z,23
2017-02-13T04:33:39.930Z,23.03
2017-02-13T04:34:08.140Z,23.03
2017-02-13T04:34:36.208Z,23.03
2017-02-13T04:35:04.313Z,23
2017-02-13T04:35:32.436Z,22.97
2017-02-13T04:36:00.634Z,23.04
2017-02-13T04:36:28.805Z,23.06
2017-02-13T04:36:56.938Z,22.92
2017-02-13T04:37:25.043Z,22.94
2017-02-13T04:37:53.210Z,22.97
2017-02-13T04:38:21.319Z,22.94
2017-02-13T04:38:49.466Z,22.92
2017-02-13T04:39:17.704Z,22.92
2017-02-13T04:39:45.841Z,22.96
2017-02-13T04:40:14.111Z,22.96
2017-02-13T04:40:42.387Z,23
2017-02-13T04:41:10.423Z,22.81
2017-02-13T04:41:38.599Z,22.85
2017-02-13T04:42:06.630Z,22.88
2017-02-13T04:42:34.744Z,22.88
2017-02-13T04:43:02.829Z,22.82
2017-02-13T04:43:30.953Z,22.88
2017-02-13T04:43:59.100Z,22.89
2017-02-13T04:44:27.099Z,22.82
2017-02-13T04:44:55.184Z,22.86
2017-02-13T04:45:23.550Z,22.85
2017-02-13T04:45:51.694Z,22.82
2017-02-13T04:46:19.892Z,22.86
2017-02-13T04:46:48.047Z,22.84
2017-02-13T04:47:16.233Z,22.82
2017-02-13T04:47:44.461Z,22.79
2017-02-13T04:48:12.562Z,22.73
2017-02-13T04:48:40.682Z,22.69
2017-02-13T04:49:08.849Z,22.67
2017-02-13T04:49:36.782Z,22.69
2017-02-13T04:50:04.852Z,22.71
2017-02-13T04:50:33.272Z,22.67
2017-02-13T04:51:01.271Z,22.67
2017-02-13T04:51:29.362Z,22.61
2017-02-13T04:51:57.429Z,22.66
2017-02-13T04:52:25.497Z,22.67
2017-02-13T04:52:53.626Z,22.59
2017-02-13T04:53:21.868Z,22.69
2017-02-13T04:53:49.941Z,22.67
2017-02-13T04:54:18.058Z,22.66
2017-02-13T04:54:46.259Z,22.61
2017-02-13T04:55:14.306Z,22.63
2017-02-13T04:55:42.588Z,22.64
2017-02-13T04:56:10.604Z,22.61
2017-02-13T04:56:38.808Z,22.6
2017-02-13T04:57:06.766Z,22.57
2017-02-13T04:57:34.892Z,22.61
2017-02-13T04:58:03.148Z,22.6
2017-02-13T04:58:31.253Z,22.57
2017-02-13T04:58:59.452Z,22.52
2017-02-13T04:59:27.679Z,22.52
2017-02-13T04:59:55.775Z,22.54
2017-02-13T05:00:23.944Z,22.57
2017-02-13T05:00:51.970Z,22.57
2017-02-13T05:01:20.124Z,22.54
2017-02-13T05:01:48.258Z,22.54
2017-02-13T05:02:16.324Z,22.54
2017-02-13T05:02:44.314Z,22.54
2017-02-13T05:03:12.381Z,22.55
2017-02-13T05:03:40.406Z,22.6
2017-02-13T05:04:08.425Z,22.54
2017-02-13T05:04:36.468Z,22.55
2017-02-13T05:05:04.612Z,22.55
2017-02-13T05:05:32.809Z,22.57
2017-02-13T05:06:00.904Z,22.59
2017-02-13T05:06:29.050Z,22.6
2017-02-13T05:06:57.163Z,22.64
2017-02-13T05:07:25.286Z,22.55
2017-02-13T05:07:53.378Z,22.59
2017-02-13T05:08:21.421Z,22.55
2017-02-13T05:08:49.495Z,22.52
2017-02-13T05:09:17.435Z,22.57
2017-02-13T05:09:45.549Z,22.59
2017-02-13T05:10:13.744Z,22.61
2017-02-13T05:10:42.073Z,22.55
2017-02-13T05:11:10.222Z,22.52
2017-02-13T05:11:38.306Z,22.49
2017-02-13T05:12:06.512Z,22.46
2017-02-13T05:12:34.685Z,22.48
2017-02-13T05:13:02.746Z,22.51
2017-02-13T05:13:30.844Z,22.44
2017-02-13T05:13:58.927Z,22.46
2017-02-13T05:14:27.106Z,22.51
2017-02-13T05:14:55.080Z,22.46
2017-02-13T05:15:23.147Z,22.46
2017-02-13T05:15:51.149Z,22.48
2017-02-13T05:16:19.167Z,22.45
2017-02-13T05:16:47.337Z,22.46
2017-02-13T05:17:15.448Z,22.45
2017-02-13T05:17:43.573Z,22.48
2017-02-13T05:18:11.741Z,22.44
2017-02-13T05:18:39.862Z,22.52
2017-02-13T05:19:07.885Z,22.49
2017-02-13T05:19:35.992Z,22.49
2017-02-13T05:20:04.195Z,22.48
2017-02-13T05:20:32.259Z,22.49
2017-02-13T05:21:00.611Z,22.38
2017-02-13T05:21:28.801Z,22.41
2017-02-13T05:21:56.955Z,22.38
2017-02-13T05:22:25.022Z,22.39
2017-02-13T05:22:53.038Z,22.33
2017-02-13T05:23:21.165Z,22.29
2017-02-13T05:23:49.352Z,22.24
2017-02-13T05:24:17.577Z,22.2
2017-02-13T05:24:45.724Z,22.24
2017-02-13T05:25:13.754Z,22.34
2017-02-13T05:25:41.904Z,22.27
2017-02-13T05:26:10.031Z,22.23
2017-02-13T05:26:37.979Z,22.24
2017-02-13T05:27:06.045Z,22.16
2017-02-13T05:27:34.178Z,22.16
2017-02-13T05:28:02.324Z,22.14
2017-02-13T05:28:30.452Z,22.16
2017-02-13T05:28:58.630Z,22.14
2017-02-13T05:29:26.556Z,22.23
2017-02-13T05:29:54.711Z,22.2
2017-02-13T05:30:22.808Z,22.14
2017-02-13T05:30:51.035Z,22.2
2017-02-13T05:31:19.251Z,22.12
2017-02-13T05:31:47.417Z,22.15
2017-02-13T05:32:15.450Z,22.15
2017-02-13T05:32:43.555Z,22.09
2017-02-13T05:33:11.642Z,22.16
2017-02-13T05:33:39.752Z,22.02
2017-02-13T05:34:07.769Z,22
2017-02-13T05:34:35.899Z,22
2017-02-13T05:35:03.958Z,21.97
2017-02-13T05:35:32.090Z,22.02
2017-02-13T05:36:00.293Z,22
2017-02-13T05:36:28.356Z,22.05
2017-02-13T05:36:56.377Z,21.97
2017-02-13T05:37:24.614Z,21.99
2017-02-13T05:37:52.787Z,21.96
2017-02-13T05:38:20.971Z,22.05
2017-02-13T05:38:49.032Z,22.02
2017-02-13T05:39:17.264Z,21.92
2017-02-13T05:39:45.294Z,21.97
2017-02-13T05:40:13.290Z,21.89
2017-02-13T05:40:41.413Z,21.86
2017-02-13T05:41:09.767Z,21.92
2017-02-13T05:41:37.735Z,21.89
2017-02-13T05:42:05.655Z,21.86
2017-02-13T05:42:33.693Z,21.86
2017-02-13T05:43:01.723Z,21.85
2017-02-13T05:43:29.800Z,21.89
2017-02-13T05:43:57.975Z,21.9
2017-02-13T05:44:26.098Z,21.85
2017-02-13T05:44:54.255Z,21.86
2017-02-13T05:45:22.463Z,21.86
2017-02-13T05:45:50.500Z,21.86
2017-02-13T05:46:18.618Z,21.82
2017-02-13T05:46:46.579Z,21.85
2017-02-13T05:47:14.662Z,21.83
2017-02-13T05:47:42.841Z,21.86
2017-02-13T05:48:11.029Z,21.82
2017-02-13T05:48:39.271Z,22
2017-02-13T05:49:07.188Z,21.9
2017-02-13T05:49:35.153Z,21.99
2017-02-13T05:50:03.307Z,21.96
2017-02-13T05:50:31.340Z,21.93
2017-02-13T05:50:59.765Z,22
2017-02-13T05:51:27.970Z,22.04
2017-02-13T05:51:56.105Z,22.04
2017-02-13T05:52:24.146Z,22.02
2017-02-13T05:52:52.262Z,22.02
2017-02-13T05:53:20.207Z,22
2017-02-13T05:53:48.234Z,22.09
2017-02-13T05:54:16.171Z,22
2017-02-13T05:54:44.035Z,22
2017-02-13T05:55:12.301Z,22.07
2017-02-13T05:55:40.409Z,21.97
2017-02-13T05:56:08.835Z,21.99
2017-02-13T05:56:36.930Z,22.02
2017-02-13T05:57:05.062Z,21.99
2017-02-13T05:57:33.297Z,22.05
2017-02-13T05:58:01.424Z,22.11
2017-02-13T05:58:29.568Z,22.14
2017-02-13T05:58:57.711Z,22.14
2017-02-13T05:59:25.924Z,22.2
2017-02-13T05:59:54.033Z,22.15
2017-02-13T06:00:22.155Z,22.16
2017-02-13T06:00:50.103Z,22.24
2017-02-13T06:01:18.404Z,22.23
2017-02-13T06:01:46.428Z,22.22
2017-02-13T06:02:14.496Z,22.2
2017-02-13T06:02:42.613Z,22.14
2017-02-13T06:03:10.726Z,22.18
2017-02-13T06:03:38.960Z,22.18
2017-02-13T06:04:07.117Z,22.14
2017-02-13T06:04:35.160Z,22.18